Fort Eustis, Virginia
Current Conditions -  °F | °C
As of 12:58 PM on Tuesday 21 Oct 2014 (Local Time) from KFAF Reporting Station
Clear Clear  
Wind Chill: 21°   Ceiling: Unl
Heat Index: 21°   Visibility: 10mi
Dew Point: 12°   Wind: 5mph
Humidity: 54%   Direction: NA
Pressure: 29.83"   Gusts: NA
Location:  37.13°N, 76.61°W
Report Text: KFAF 211658Z AUTO VRB04KT 10SM CLR 21/12 A2983 RMK AO2 SLP105 T02130116 $
Loading
Personal Weather Stations






























Interactive Weather Map
Tropical Storm Tracking
New forecast layout! Learn more

10-Day Weather Forecast

Advertisements
Track Severe Weather on mobile